Time;durP1;ratioP1;P1;durP2;ratioP2;P2;SDS_P1;SDS_P2;PMS_P1;PMS_P2;Temp;Humidity;BMP_temperature;BMP_pressure;BME280_temperature;BME280_humidity;BME280_pressure;Samples;Min_cycle;Max_cycle;Signal;HPM_P1;HPM_P2
2022/03/18 00:03:20;;;;;;;;;;;;;;;20.90;48.03;102188.03;20738982;27;97104;-78
2022/03/18 00:13:20;;;;;;;;;;;;;;;20.89;47.92;102196.88;20718646;28;97722;-76
2022/03/18 00:23:21;;;;;;;;;;;;;;;20.85;48.13;102203.22;20731602;27;97111;-77
2022/03/18 00:33:22;;;;;;;;;;;;;;;20.84;48.43;102212.03;20732306;27;97460;-77
2022/03/18 00:43:22;;;;;;;;;;;;;;;20.82;48.02;102213.03;20738516;27;98143;-78
2022/03/18 00:53:24;;;;;;;;;;;;;;;20.82;48.36;102228.84;20731541;27;97076;-76
2022/03/18 01:03:24;;;;;;;;;;;;;;;20.80;48.17;102221.00;20728136;28;98812;-78
2022/03/18 01:13:25;;;;;;;;;;;;;;;20.77;47.90;102244.84;20739761;27;98016;-76
2022/03/18 01:23:25;;;;;;;;;;;;;;;20.76;48.16;102235.22;20735738;27;100033;-76
2022/03/18 01:33:26;;;;;;;;;;;;;;;20.73;47.68;102243.28;20728013;28;97484;-76
2022/03/18 01:43:26;;;;;;;;;;;;;;;20.71;48.05;102245.94;20727764;27;97337;-77
2022/03/18 01:53:27;;;;;;;;;;;;;;;20.67;48.01;102252.28;20730710;27;97165;-76
2022/03/18 02:03:27;;;;;;;;;;;;;;;20.67;47.80;102259.31;20727677;27;97184;-76
2022/03/18 02:13:29;;;;;;;;;;;;;;;20.64;48.25;102265.56;20728899;27;97601;-76
2022/03/18 02:23:29;;;;;;;;;;;;;;;20.64;47.82;102278.72;20732551;27;97681;-75
2022/03/18 02:33:30;;;;;;;;;;;;;;;20.60;47.99;102290.31;20708336;27;97644;-77
2022/03/18 02:43:30;;;;;;;;;;;;;;;20.58;47.98;102289.53;20729884;27;101181;-77
2022/03/18 02:53:31;;;;;;;;;;;;;;;20.57;47.91;102308.91;20733589;27;99079;-77
2022/03/18 03:03:31;;;;;;;;;;;;;;;20.54;47.81;102314.28;20736472;27;97831;-76
2022/03/18 03:13:32;;;;;;;;;;;;;;;20.52;48.24;102330.16;20744491;27;97175;-75
2022/03/18 03:23:33;;;;;;;;;;;;;;;20.48;48.11;102353.09;20742926;27;99378;-75
2022/03/18 03:33:33;;;;;;;;;;;;;;;20.48;48.12;102362.75;20734198;27;97709;-76
2022/03/18 03:43:34;;;;;;;;;;;;;;;20.47;47.75;102371.59;20750875;27;100064;-76
2022/03/18 03:53:34;;;;;;;;;;;;;;;20.45;47.77;102378.69;20813018;27;96883;-76
2022/03/18 04:03:35;;;;;;;;;;;;;;;20.42;47.84;102403.38;20814210;27;97309;-77
2022/03/18 04:13:36;;;;;;;;;;;;;;;20.40;47.92;102412.25;20811854;27;99484;-76
2022/03/18 04:23:36;;;;;;;;;;;;;;;20.37;47.58;102415.84;20800639;27;101007;-76
2022/03/18 04:33:37;;;;;;;;;;;;;;;20.36;47.57;102426.44;20812933;27;99928;-76
2022/03/18 04:43:37;;;;;;;;;;;;;;;20.35;47.31;102435.25;20783810;27;98307;-75
2022/03/18 04:53:40;;;;;;;;;;;;;;;20.36;47.20;102455.38;20732170;27;100933;-76
2022/03/18 05:03:40;;;;;;;;;;;;;;;20.33;47.37;102485.31;20721322;27;97776;-75
2022/03/18 05:13:42;;;;;;;;;;;;;;;20.33;47.58;102489.72;20695322;27;98622;-77
2022/03/18 05:23:42;;;;;;;;;;;;;;;20.42;47.78;102495.47;20728227;27;97443;-75
2022/03/18 05:33:43;;;;;;;;;;;;;;;20.48;47.93;102496.97;20739886;27;97065;-76
2022/03/18 05:43:43;;;;;;;;;;;;;;;20.54;47.70;102509.03;20722012;27;97017;-76
2022/03/18 05:53:44;;;;;;;;;;;;;;;20.51;42.34;102514.41;20734148;27;97305;-77
2022/03/18 06:03:44;;;;;;;;;;;;;;;20.61;46.56;102527.13;20722077;27;97144;-74
2022/03/18 06:13:45;;;;;;;;;;;;;;;20.59;44.57;102544.78;20736012;28;97831;-82
2022/03/18 06:23:45;;;;;;;;;;;;;;;20.63;45.27;102554.25;20750258;28;99675;-74
2022/03/18 06:33:46;;;;;;;;;;;;;;;20.55;40.90;102564.25;20730133;28;97668;-75
2022/03/18 06:43:47;;;;;;;;;;;;;;;20.64;43.03;102574.41;20747114;28;96964;-76
2022/03/18 06:53:47;;;;;;;;;;;;;;;20.69;43.74;102584.75;20747236;27;98465;-76
2022/03/18 07:03:48;;;;;;;;;;;;;;;20.74;43.96;102590.72;20756744;27;97316;-76
2022/03/18 07:13:48;;;;;;;;;;;;;;;20.79;44.13;102601.06;20754589;27;96899;-76
2022/03/18 07:23:49;;;;;;;;;;;;;;;20.85;44.31;102610.47;20752132;27;97429;-76
2022/03/18 07:33:51;;;;;;;;;;;;;;;20.89;44.51;102618.19;20751489;28;97506;-76
2022/03/18 07:43:51;;;;;;;;;;;;;;;20.92;44.24;102636.53;20759108;27;98243;-76
2022/03/18 07:53:52;;;;;;;;;;;;;;;21.00;44.58;102638.84;20749044;27;97628;-75
2022/03/18 08:03:52;;;;;;;;;;;;;;;21.04;44.68;102637.78;20747321;27;97464;-75
2022/03/18 08:13:54;;;;;;;;;;;;;;;21.09;44.98;102651.63;20730381;28;96974;-75
2022/03/18 08:23:54;;;;;;;;;;;;;;;21.13;45.07;102662.03;20743016;27;97505;-75
2022/03/18 08:33:56;;;;;;;;;;;;;;;21.15;44.94;102673.38;20752250;28;96946;-75
2022/03/18 08:43:57;;;;;;;;;;;;;;;21.19;45.02;102680.22;20757933;27;97380;-74
2022/03/18 08:53:57;;;;;;;;;;;;;;;21.20;44.98;102687.22;20740574;27;96915;-74
2022/03/18 09:03:58;;;;;;;;;;;;;;;21.19;44.86;102699.53;20739812;27;97073;-75
2022/03/18 09:13:58;;;;;;;;;;;;;;;21.18;45.15;102703.09;20724098;27;97130;-75
2022/03/18 09:23:59;;;;;;;;;;;;;;;21.18;44.64;102712.75;20737967;27;96993;-76
2022/03/18 09:33:59;;;;;;;;;;;;;;;21.18;44.71;102707.47;20735450;27;98551;-75
2022/03/18 09:44:00;;;;;;;;;;;;;;;21.15;44.79;102708.47;20728669;27;97410;-75
2022/03/18 09:54:01;;;;;;;;;;;;;;;21.16;44.57;102715.47;20744745;27;97715;-76
2022/03/18 10:04:02;;;;;;;;;;;;;;;21.17;44.36;102713.69;20755006;27;98157;-76
2022/03/18 10:14:07;;;;;;;;;;;;;;;21.19;44.65;102725.88;20726261;27;99029;-75
2022/03/18 10:24:09;;;;;;;;;;;;;;;21.22;44.75;102725.75;20758672;27;98711;-75
2022/03/18 10:44:41;;;;;;;;;;;;;;;21.26;45.17;102716.81;20762056;27;98294;-75
2022/03/18 10:54:41;;;;;;;;;;;;;;;21.28;45.30;102725.50;20818939;27;101475;-75
2022/03/18 11:04:42;;;;;;;;;;;;;;;21.35;45.35;102726.13;20812281;27;99718;-75
2022/03/18 11:14:43;;;;;;;;;;;;;;;21.40;45.58;102718.03;20816339;27;98744;-73
2022/03/18 11:24:45;;;;;;;;;;;;;;;21.48;45.60;102701.88;20812762;27;98026;-74
2022/03/18 11:34:45;;;;;;;;;;;;;;;21.65;45.41;102695.94;20817159;27;96977;-76
2022/03/18 11:44:52;;;;;;;;;;;;;;;21.84;47.41;102690.72;20806862;27;97649;-74
2022/03/18 11:54:53;;;;;;;;;;;;;;;21.97;48.56;102689.25;20722725;27;98932;-75
2022/03/18 12:04:55;;;;;;;;;;;;;;;22.04;48.77;102685.38;20718621;27;99977;-75
2022/03/18 12:14:57;;;;;;;;;;;;;;;22.20;47.69;102664.47;20747098;27;97209;-76
2022/03/18 12:24:57;;;;;;;;;;;;;;;22.31;47.12;102653.41;20732531;27;97800;-77
2022/03/18 12:34:58;;;;;;;;;;;;;;;22.40;47.17;102649.53;20751250;27;98778;-75
2022/03/18 12:45:00;;;;;;;;;;;;;;;22.46;45.84;102638.69;20745394;27;98115;-75
2022/03/18 12:55:10;;;;;;;;;;;;;;;22.46;44.53;102630.75;20659761;28;97267;-76
2022/03/18 13:05:15;;;;;;;;;;;;;;;22.56;45.31;102615.34;20661563;28;97152;-76
2022/03/18 13:15:16;;;;;;;;;;;;;;;22.61;45.68;102607.19;20661714;28;97141;-76
2022/03/18 13:25:16;;;;;;;;;;;;;;;22.66;45.29;102600.75;20664170;28;97607;-76
2022/03/18 13:35:22;;;;;;;;;;;;;;;22.70;45.19;102596.16;20678346;28;97640;-76
2022/03/18 13:45:23;;;;;;;;;;;;;;;22.70;44.86;102585.59;20720855;27;99440;-76
2022/03/18 13:55:32;;;;;;;;;;;;;;;22.27;35.51;102585.00;20771266;27;97837;-79
2022/03/18 14:05:33;;;;;;;;;;;;;;;22.43;38.91;102579.88;20737341;27;96907;-79
2022/03/18 14:15:35;;;;;;;;;;;;;;;22.53;40.24;102563.53;20744366;27;96990;-80
2022/03/18 14:25:36;;;;;;;;;;;;;;;22.53;41.12;102565.31;20739099;27;97099;-79
2022/03/18 14:35:36;;;;;;;;;;;;;;;22.53;41.77;102565.31;20704150;27;98246;-77
2022/03/18 14:45:36;;;;;;;;;;;;;;;22.46;42.21;102564.75;20685740;27;98335;-76
2022/03/18 15:05:56;;;;;;;;;;;;;;;22.45;42.29;102551.63;20688776;27;97570;-76
2022/03/18 15:15:56;;;;;;;;;;;;;;;22.45;42.51;102556.88;20732289;27;98094;-76
2022/03/18 15:25:59;;;;;;;;;;;;;;;22.44;42.58;102550.78;20667737;28;100096;-79
2022/03/18 15:35:59;;;;;;;;;;;;;;;22.40;42.59;102549.22;20671175;28;99084;-78
2022/03/18 15:46:01;;;;;;;;;;;;;;;22.36;42.70;102558.16;20732352;27;98632;-79
2022/03/18 15:56:02;;;;;;;;;;;;;;;22.39;42.69;102558.06;20812206;27;100499;-78
2022/03/18 16:06:02;;;;;;;;;;;;;;;22.32;42.90;102554.81;20836869;27;100542;-79
2022/03/18 16:16:03;;;;;;;;;;;;;;;22.25;42.74;102556.03;20770360;27;97699;-80
2022/03/18 16:26:04;;;;;;;;;;;;;;;22.19;42.65;102557.19;20802427;27;97693;-79
2022/03/18 16:36:05;;;;;;;;;;;;;;;22.14;42.24;102553.06;20750718;27;97483;-77
2022/03/18 16:56:24;;;;;;;;;;;;;;;21.86;38.71;102556.97;20775214;27;97296;-76
2022/03/18 17:06:24;;;;;;;;;;;;;;;21.92;40.17;102572.53;20736400;27;100806;-76
2022/03/18 17:16:25;;;;;;;;;;;;;;;22.01;40.48;102581.81;20748375;27;98364;-77
2022/03/18 17:26:25;;;;;;;;;;;;;;;22.09;41.10;102594.66;20744339;27;99122;-77
2022/03/18 17:36:27;;;;;;;;;;;;;;;22.13;41.27;102609.41;20745621;27;97700;-76
2022/03/18 17:46:27;;;;;;;;;;;;;;;22.16;41.58;102611.91;20698405;27;99803;-75
2022/03/18 17:56:29;;;;;;;;;;;;;;;22.20;41.82;102616.97;20651985;28;98048;-76
2022/03/18 18:06:30;;;;;;;;;;;;;;;22.22;42.52;102619.53;20666178;27;97272;-77
2022/03/18 18:16:31;;;;;;;;;;;;;;;22.26;42.50;102626.38;20659776;28;99034;-76
2022/03/18 18:26:32;;;;;;;;;;;;;;;22.23;42.86;102632.66;20683815;27;98021;-77
2022/03/18 18:36:32;;;;;;;;;;;;;;;22.21;42.88;102645.06;20676937;28;97620;-76
2022/03/18 18:46:34;;;;;;;;;;;;;;;22.20;43.23;102648.63;20717817;27;97486;-75
2022/03/18 18:56:34;;;;;;;;;;;;;;;22.23;43.17;102645.84;20734154;27;97423;-76
2022/03/18 19:06:35;;;;;;;;;;;;;;;22.26;43.74;102647.47;20763335;27;97204;-77
2022/03/18 19:16:38;;;;;;;;;;;;;;;22.22;43.60;102644.13;20751195;27;97383;-76
2022/03/18 19:26:39;;;;;;;;;;;;;;;22.20;43.47;102651.28;20801285;27;97276;-76
2022/03/18 19:36:39;;;;;;;;;;;;;;;22.19;43.65;102662.75;20823051;27;98068;-76
2022/03/18 19:46:40;;;;;;;;;;;;;;;22.15;43.84;102658.53;20747754;27;97570;-77
2022/03/18 20:06:59;;;;;;;;;;;;;;;22.14;44.00;102662.13;20655149;27;98116;-81
2022/03/18 20:17:00;;;;;;;;;;;;;;;22.12;43.74;102660.44;20762372;27;101313;-79
2022/03/18 20:27:01;;;;;;;;;;;;;;;22.12;44.25;102660.44;20762987;27;96924;-78
2022/03/18 20:37:03;;;;;;;;;;;;;;;22.00;43.48;102662.72;20765466;27;98264;-79
2022/03/18 20:47:04;;;;;;;;;;;;;;;21.87;43.53;102654.53;20750229;27;97899;-79
2022/03/18 20:57:05;;;;;;;;;;;;;;;21.79;43.65;102653.13;20769651;27;97348;-80
2022/03/18 21:07:06;;;;;;;;;;;;;;;;;;20761959;27;98143;-81
2022/03/18 21:17:25;;;;;;;;;;;;;;;21.70;44.23;102655.25;20763484;27;96847;-80
2022/03/18 21:37:45;;;;;;;;;;;;;;;21.63;44.84;102664.34;20767646;27;97901;-80
2022/03/18 21:47:46;;;;;;;;;;;;;;;21.61;44.87;102660.09;20805811;27;97210;-80
2022/03/18 21:57:49;;;;;;;;;;;;;;;21.55;44.57;102658.53;20833995;27;97336;-80
2022/03/18 22:07:52;;;;;;;;;;;;;;;21.50;45.28;102661.34;20864384;27;97132;-80
2022/03/18 22:17:53;;;;;;;;;;;;;;;21.46;45.26;102670.31;20864066;27;98586;-80
2022/03/18 22:27:54;;;;;;;;;;;;;;;21.44;45.42;102661.63;20857981;27;97659;-80
2022/03/18 22:37:55;;;;;;;;;;;;;;;21.41;45.25;102674.91;20870241;27;100593;-81
2022/03/18 22:47:58;;;;;;;;;;;;;;;21.39;45.76;102668.88;20834185;27;98112;-80
2022/03/18 22:57:59;;;;;;;;;;;;;;;21.35;45.47;102670.78;20782020;27;97064;-82
2022/03/18 23:08:00;;;;;;;;;;;;;;;21.34;45.72;102668.22;20784441;27;100691;-81
2022/03/18 23:18:06;;;;;;;;;;;;;;;21.32;45.52;102670.03;20765255;27;97041;-82
2022/03/18 23:28:07;;;;;;;;;;;;;;;21.28;46.26;102662.25;20773471;27;97355;-80
2022/03/18 23:38:07;;;;;;;;;;;;;;;21.28;45.59;102653.50;20780716;27;97217;-80
2022/03/18 23:48:09;;;;;;;;;;;;;;;21.23;45.91;102664.22;20779081;27;97081;-81
2022/03/18 23:58:09;;;;;;;;;;;;;;;21.20;45.90;102651.19;20784445;27;98554;-80
